createdAt,value
2019-04-11T00:00:52.096Z,6.93
2019-04-11T00:03:21.798Z,5.97
2019-04-11T00:05:52.808Z,5.80
2019-04-11T00:08:22.845Z,6.10
2019-04-11T00:10:53.517Z,4.63
2019-04-11T00:13:26.662Z,6.03
2019-04-11T00:15:54.985Z,6.20
2019-04-11T00:18:26.974Z,6.53
2019-04-11T00:20:56.749Z,6.43
2019-04-11T00:23:38.610Z,6.47
2019-04-11T00:26:08.447Z,5.43
2019-04-11T00:28:38.163Z,6.63
2019-04-11T00:31:08.464Z,6.17
2019-04-11T00:33:38.256Z,6.73
2019-04-11T00:36:08.368Z,5.63
2019-04-11T00:38:38.282Z,6.00
2019-04-11T00:41:08.053Z,6.43
2019-04-11T00:43:41.982Z,5.73
2019-04-11T00:46:09.903Z,5.83
2019-04-11T00:48:39.712Z,6.43
2019-04-11T00:51:09.829Z,6.30
2019-04-11T00:53:40.356Z,5.77
2019-04-11T00:56:10.922Z,6.37
2019-04-11T00:58:41.807Z,7.33
2019-04-11T01:01:11.647Z,6.07
2019-04-11T01:03:41.578Z,5.73
2019-04-11T01:06:12.213Z,6.47
2019-04-11T01:08:42.022Z,5.30
2019-04-11T01:11:12.002Z,6.17
2019-04-11T01:13:49.145Z,5.87
2019-04-11T01:16:28.334Z,5.93
2019-04-11T01:18:58.318Z,6.07
2019-04-11T01:21:28.571Z,5.33
2019-04-11T01:23:59.560Z,5.43
2019-04-11T01:26:29.734Z,4.77
2019-04-11T01:28:59.510Z,6.07
2019-04-11T01:31:30.504Z,5.20
2019-04-11T01:34:00.234Z,6.47
2019-04-11T01:36:31.072Z,5.90
2019-04-11T01:39:03.510Z,5.67
2019-04-11T01:41:34.388Z,5.83
2019-04-11T01:44:05.908Z,6.37
2019-04-11T01:46:35.470Z,5.23
2019-04-11T01:49:12.304Z,5.70
2019-04-11T01:51:42.227Z,6.87
2019-04-11T01:54:13.221Z,7.83
2019-04-11T01:56:45.335Z,4.63
2019-04-11T01:59:15.324Z,5.77
2019-04-11T02:02:03.396Z,6.47
2019-04-11T02:04:41.610Z,5.77
2019-04-11T02:07:12.215Z,6.97
2019-04-11T02:09:42.274Z,5.93
2019-04-11T02:12:12.116Z,6.37
2019-04-11T02:14:41.845Z,6.23
2019-04-11T02:17:12.563Z,5.27
2019-04-11T02:19:42.590Z,6.00
2019-04-11T02:22:50.697Z,4.60
2019-04-11T02:25:30.437Z,5.87
2019-04-11T02:28:00.852Z,5.93
2019-04-11T02:30:31.483Z,5.37
2019-04-11T02:33:01.171Z,5.60
2019-04-11T02:35:31.089Z,5.93
2019-04-11T02:38:02.816Z,6.00
2019-04-11T02:40:33.125Z,5.73
2019-04-11T02:43:04.774Z,5.33
2019-04-11T02:45:45.237Z,5.43
2019-04-11T02:48:09.271Z,4.03
2019-04-11T02:50:38.875Z,5.40
2019-04-11T02:53:10.430Z,4.97
2019-04-11T02:55:41.652Z,5.00
2019-04-11T02:58:12.582Z,6.40
2019-04-11T03:00:45.014Z,5.07
2019-04-11T03:03:15.123Z,5.17
2019-04-11T03:05:46.861Z,5.97
2019-04-11T03:08:19.143Z,5.23
2019-04-11T03:10:49.163Z,6.47
2019-04-11T03:13:19.205Z,5.53
2019-04-11T03:16:07.190Z,6.00
2019-04-11T03:18:42.544Z,5.53
2019-04-11T03:20:57.676Z,5.00
2019-04-11T03:23:27.299Z,7.03
2019-04-11T03:25:57.065Z,6.20
2019-04-11T03:28:30.212Z,6.30
2019-04-11T03:31:27.554Z,6.40
2019-04-11T03:38:55.225Z,7.87
2019-04-11T03:41:23.439Z,6.70
2019-04-11T03:43:51.331Z,6.73
2019-04-11T03:46:24.980Z,7.10
2019-04-11T03:48:53.015Z,8.73
2019-04-11T03:51:14.789Z,6.10
2019-04-11T03:53:45.051Z,7.27
2019-04-11T03:56:16.287Z,6.23
2019-04-11T03:58:48.283Z,7.47
2019-04-11T04:01:21.043Z,6.27
2019-04-11T04:03:51.833Z,6.00
2019-04-11T04:06:23.313Z,6.87
2019-04-11T04:08:55.263Z,6.33
2019-04-11T04:11:27.748Z,6.53
2019-04-11T04:14:04.399Z,7.57
2019-04-11T04:16:50.277Z,7.97
2019-04-11T04:19:37.710Z,7.17
2019-04-11T04:22:15.483Z,6.90
2019-04-11T04:24:46.932Z,6.90
2019-04-11T04:27:17.366Z,8.23
2019-04-11T04:30:06.530Z,8.27
2019-04-11T04:32:38.638Z,7.60
2019-04-11T04:35:12.773Z,6.80
2019-04-11T04:37:40.974Z,8.30
2019-04-11T04:40:26.713Z,8.07
2019-04-11T04:42:46.643Z,7.90
2019-04-11T04:45:16.222Z,5.63
2019-04-11T04:47:48.860Z,8.47
2019-04-11T04:50:18.369Z,8.03
2019-04-11T04:52:49.359Z,7.47
2019-04-11T04:55:19.436Z,8.10
2019-04-11T04:57:51.095Z,8.10
2019-04-11T05:00:23.180Z,9.37
2019-04-11T05:02:52.986Z,8.63
2019-04-11T05:05:24.340Z,8.93
2019-04-11T05:07:56.140Z,9.07
2019-04-11T05:10:26.401Z,9.50
2019-04-11T05:12:57.165Z,9.90
2019-04-11T05:15:28.212Z,10.03
2019-04-11T05:17:58.004Z,10.30
2019-04-11T05:20:28.198Z,9.70
2019-04-11T05:22:58.026Z,10.73
2019-04-11T05:25:28.633Z,10.80
2019-04-11T05:27:58.626Z,10.30
2019-04-11T05:30:29.167Z,10.57
2019-04-11T05:32:59.776Z,9.33
2019-04-11T05:35:29.898Z,10.80
2019-04-11T05:37:59.884Z,11.67
2019-04-11T05:40:30.907Z,11.57
2019-04-11T05:43:01.730Z,10.80
2019-04-11T05:45:31.780Z,10.63
2019-04-11T05:48:03.230Z,11.77
2019-04-11T05:50:34.666Z,10.40
2019-04-11T05:53:05.687Z,9.30
2019-04-11T05:55:43.340Z,9.43
2019-04-11T05:58:14.262Z,10.90
2019-04-11T06:00:50.302Z,10.57
2019-04-11T06:03:19.949Z,10.70
2019-04-11T06:05:56.367Z,11.13
2019-04-11T06:08:27.598Z,10.97
2019-04-11T06:11:26.670Z,10.03
2019-04-11T06:14:15.297Z,9.03
2019-04-11T06:16:53.844Z,9.57
2019-04-11T06:19:40.328Z,8.57
2019-04-11T06:22:15.442Z,9.47
2019-04-11T06:25:18.915Z,8.80
2019-04-11T06:28:22.206Z,8.67
2019-04-11T06:31:26.251Z,9.13
2019-04-11T06:34:01.782Z,8.53
2019-04-11T06:36:58.450Z,9.73
2019-04-11T06:39:39.577Z,8.23
2019-04-11T06:42:47.664Z,8.03
2019-04-11T06:45:48.810Z,8.60
2019-04-11T06:48:42.152Z,8.30
2019-04-11T06:51:19.845Z,8.87
2019-04-11T06:54:08.497Z,9.20
2019-04-11T06:56:43.450Z,9.30
2019-04-11T06:59:16.813Z,9.77
2019-04-11T07:01:47.597Z,8.80
2019-04-11T07:04:32.188Z,8.67
2019-04-11T07:07:04.116Z,8.30
2019-04-11T07:09:59.776Z,9.27
2019-04-11T07:12:49.367Z,8.43
2019-04-11T07:15:25.174Z,8.40
2019-04-11T07:18:14.003Z,8.13
2019-04-11T07:20:58.659Z,7.80
2019-04-11T07:23:47.030Z,8.00
2019-04-11T07:26:29.521Z,7.47
2019-04-11T07:29:21.622Z,6.63
2019-04-11T07:32:07.423Z,6.90
2019-04-11T07:35:02.377Z,6.30
2019-04-11T07:37:44.746Z,7.73
2019-04-11T07:40:39.238Z,7.20
2019-04-11T07:43:15.764Z,6.33
2019-04-11T07:46:25.051Z,5.93
2019-04-11T07:49:05.804Z,6.70
2019-04-11T07:51:38.644Z,6.47
2019-04-11T07:54:11.601Z,7.13
2019-04-11T07:56:53.494Z,6.47
2019-04-11T07:59:46.760Z,6.93
2019-04-11T08:02:37.697Z,7.13
2019-04-11T08:05:28.032Z,7.10
2019-04-11T08:08:15.730Z,7.03
2019-04-11T08:10:50.618Z,7.23
2019-04-11T08:13:26.256Z,5.00
2019-04-11T08:16:24.520Z,6.30
2019-04-11T08:19:25.339Z,7.30
2019-04-11T08:22:19.038Z,5.33
2019-04-11T08:25:17.462Z,6.37
2019-04-11T08:28:00.088Z,6.03
2019-04-11T08:30:30.610Z,5.47
2019-04-11T08:33:02.378Z,6.00
2019-04-11T08:35:53.492Z,5.70
2019-04-11T08:38:34.255Z,5.37
2019-04-11T08:41:27.370Z,5.87
2019-04-11T08:43:57.323Z,4.80
2019-04-11T08:46:33.642Z,5.90
2019-04-11T08:49:05.722Z,5.17
2019-04-11T08:51:35.740Z,5.17
2019-04-11T08:54:23.736Z,6.83
2019-04-11T08:56:53.694Z,5.80
2019-04-11T08:59:46.099Z,6.20
2019-04-11T09:02:24.725Z,6.27
2019-04-11T09:05:27.033Z,6.77
2019-04-11T09:08:07.950Z,6.10
2019-04-11T09:11:04.476Z,5.63
2019-04-11T09:13:44.964Z,6.27
2019-04-11T09:16:52.179Z,5.73
2019-04-11T09:19:39.338Z,7.43
2019-04-11T09:22:26.898Z,6.70
2019-04-11T09:25:28.937Z,5.50
2019-04-11T09:28:33.531Z,5.20
2019-04-11T09:31:31.792Z,6.17
2019-04-11T09:34:19.786Z,8.07
2019-04-11T09:37:05.622Z,6.53
2019-04-11T09:39:41.356Z,5.53
2019-04-11T09:42:32.418Z,5.50
2019-04-11T09:45:21.637Z,6.23
2019-04-11T09:48:14.799Z,5.37
2019-04-11T09:51:15.629Z,5.63
2019-04-11T09:53:48.306Z,6.43
2019-04-11T09:56:39.705Z,5.03
2019-04-11T09:59:14.320Z,5.83
2019-04-11T10:02:02.472Z,6.03
2019-04-11T10:04:32.253Z,5.50
2019-04-11T10:07:13.070Z,5.77
2019-04-11T10:10:02.423Z,5.67
2019-04-11T10:12:52.070Z,5.90
2019-04-11T10:15:29.785Z,5.47
2019-04-11T10:18:25.286Z,6.50
2019-04-11T10:20:49.103Z,5.70
2019-04-11T10:23:24.903Z,6.83
2019-04-11T10:25:59.301Z,6.47
2019-04-11T10:28:49.491Z,5.70
2019-04-11T10:31:20.701Z,5.73
2019-04-11T10:34:15.567Z,7.00
2019-04-11T10:37:01.329Z,5.83
2019-04-11T10:40:00.055Z,5.87
2019-04-11T10:42:31.183Z,6.40
2019-04-11T10:45:29.348Z,6.33
2019-04-11T10:48:01.234Z,6.43
2019-04-11T10:50:40.372Z,6.03
2019-04-11T10:53:11.006Z,7.00
2019-04-11T10:56:00.062Z,5.63
2019-04-11T10:58:40.609Z,5.47
2019-04-11T11:01:28.397Z,5.40
2019-04-11T11:04:04.791Z,6.27
2019-04-11T11:06:35.762Z,5.90
2019-04-11T11:09:36.809Z,6.20
2019-04-11T11:12:17.031Z,5.97
2019-04-11T11:15:15.550Z,5.93
2019-04-11T11:18:39.282Z,6.07
2019-04-11T11:21:00.834Z,6.23
2019-04-11T11:23:49.195Z,5.90
2019-04-11T11:26:24.786Z,6.60
2019-04-11T11:29:07.070Z,6.10
2019-04-11T11:31:38.594Z,7.40
2019-04-11T11:34:17.397Z,6.07
2019-04-11T11:37:01.554Z,6.87
2019-04-11T11:39:55.921Z,7.63
2019-04-11T11:42:52.620Z,5.70
2019-04-11T11:45:30.268Z,6.13
2019-04-11T11:48:23.088Z,6.00
2019-04-11T11:50:52.853Z,6.40
2019-04-11T11:53:44.418Z,6.03
2019-04-11T11:56:14.113Z,7.00
2019-04-11T11:59:02.929Z,6.07
2019-04-11T12:01:32.707Z,6.60
2019-04-11T12:04:23.816Z,6.53
2019-04-11T12:06:56.768Z,6.67
2019-04-11T12:09:41.220Z,6.80
2019-04-11T12:12:16.163Z,6.67
2019-04-11T12:15:03.522Z,6.13
2019-04-11T12:17:52.238Z,6.70
2019-04-11T12:20:27.245Z,6.47
2019-04-11T12:22:58.999Z,6.70
2019-04-11T12:25:33.439Z,5.90
2019-04-11T12:28:25.669Z,6.57
2019-04-11T12:31:01.368Z,6.97
2019-04-11T12:33:45.816Z,5.40
2019-04-11T12:36:26.463Z,6.43
2019-04-11T12:39:25.267Z,7.20
2019-04-11T12:41:57.689Z,6.90
2019-04-11T12:44:44.614Z,6.23
2019-04-11T12:47:45.554Z,5.63
2019-04-11T12:50:47.590Z,7.00
2019-04-11T12:53:21.793Z,6.67
2019-04-11T12:56:16.387Z,6.40
2019-04-11T12:59:10.857Z,6.77
2019-04-11T13:01:58.446Z,6.53
2019-04-11T13:04:44.321Z,6.33
2019-04-11T13:07:32.889Z,6.23
2019-04-11T13:10:07.127Z,6.27
2019-04-11T13:13:14.076Z,6.70
2019-04-11T13:15:46.482Z,5.83
2019-04-11T13:18:34.241Z,6.37
2019-04-11T13:21:19.428Z,6.17
2019-04-11T13:24:11.255Z,5.50
2019-04-11T13:27:09.122Z,6.57
2019-04-11T13:30:03.920Z,6.73
2019-04-11T13:32:42.943Z,6.93
2019-04-11T13:35:20.751Z,5.93
2019-04-11T13:38:08.149Z,6.27
2019-04-11T13:41:00.338Z,6.87
2019-04-11T13:43:33.871Z,6.20
2019-04-11T13:46:21.786Z,6.63
2019-04-11T13:49:20.072Z,6.93
2019-04-11T13:52:23.857Z,7.70
2019-04-11T13:55:13.955Z,5.93
2019-04-11T13:58:05.770Z,5.57
2019-04-11T14:00:54.750Z,6.80
2019-04-11T14:03:43.513Z,5.70
2019-04-11T14:06:18.898Z,5.53
2019-04-11T14:09:23.262Z,6.30
2019-04-11T14:12:00.136Z,6.17
2019-04-11T14:14:48.915Z,6.90
2019-04-11T14:17:35.725Z,5.80
2019-04-11T14:20:29.500Z,6.03
2019-04-11T14:23:15.134Z,6.00
2019-04-11T14:26:03.506Z,6.43
2019-04-11T14:28:39.238Z,5.73
2019-04-11T14:31:43.152Z,6.07
2019-04-11T14:34:30.883Z,6.53
2019-04-11T14:37:17.508Z,5.83
2019-04-11T14:39:49.355Z,6.83
2019-04-11T14:42:37.434Z,6.40
2019-04-11T14:45:16.918Z,6.13
2019-04-11T14:48:12.309Z,6.70
2019-04-11T14:50:57.791Z,6.43
2019-04-11T14:53:50.564Z,6.67
2019-04-11T14:56:21.783Z,7.80
2019-04-11T14:59:08.612Z,6.47
2019-04-11T15:01:38.309Z,6.33
2019-04-11T15:04:43.959Z,6.10
2019-04-11T15:07:15.490Z,7.70
2019-04-11T15:09:57.080Z,6.70
2019-04-11T15:12:28.302Z,7.03
2019-04-11T15:15:20.061Z,7.17
2019-04-11T15:17:55.580Z,6.80
2019-04-11T15:20:54.849Z,6.37
2019-04-11T15:23:25.093Z,7.03
2019-04-11T15:26:13.790Z,6.73
2019-04-11T15:28:54.907Z,7.23
2019-04-11T15:31:39.341Z,6.63
2019-04-11T15:34:15.318Z,6.97
2019-04-11T15:36:53.017Z,7.27
2019-04-11T15:39:54.343Z,7.07
2019-04-11T15:42:40.212Z,6.10
2019-04-11T15:45:15.892Z,5.87
2019-04-11T15:47:56.580Z,6.80
2019-04-11T15:50:44.302Z,7.63
2019-04-11T15:53:19.216Z,7.13
2019-04-11T15:56:17.005Z,6.73
2019-04-11T15:58:50.488Z,7.50
2019-04-11T16:01:39.610Z,7.17
2019-04-11T16:04:22.586Z,6.13
2019-04-11T16:07:09.944Z,6.07
2019-04-11T16:09:41.822Z,5.73
2019-04-11T16:12:20.425Z,6.73
2019-04-11T16:14:50.053Z,7.03
2019-04-11T16:17:38.758Z,7.03
2019-04-11T16:20:17.837Z,6.83
2019-04-11T16:23:15.102Z,6.63
2019-04-11T16:25:48.962Z,5.83
2019-04-11T16:28:38.226Z,5.93
2019-04-11T16:31:10.347Z,4.47
2019-04-11T16:34:16.111Z,7.47
2019-04-11T16:36:50.958Z,6.27
2019-04-11T16:39:52.128Z,6.30
2019-04-11T16:42:31.743Z,7.93
2019-04-11T16:45:25.078Z,6.33
2019-04-11T16:48:03.051Z,6.27
2019-04-11T16:50:32.932Z,6.67
2019-04-11T16:53:02.582Z,7.03
2019-04-11T16:55:32.368Z,6.63
2019-04-11T16:58:02.076Z,7.20
2019-04-11T17:00:31.843Z,5.53
2019-04-11T17:03:01.454Z,7.13
2019-04-11T17:05:31.598Z,6.67
2019-04-11T17:08:13.640Z,6.53
2019-04-11T17:11:01.638Z,6.37
2019-04-11T17:13:32.486Z,7.07
2019-04-11T17:16:05.103Z,6.80
2019-04-11T17:18:35.059Z,7.40
2019-04-11T17:21:07.877Z,7.13
2019-04-11T17:23:36.161Z,6.83
2019-04-11T17:26:07.011Z,7.17
2019-04-11T17:28:36.958Z,7.50
2019-04-11T17:31:06.721Z,8.13
2019-04-11T17:33:36.403Z,7.00
2019-04-11T17:36:06.026Z,6.07
2019-04-11T17:38:37.118Z,5.83
2019-04-11T17:41:11.106Z,7.93
2019-04-11T17:43:38.297Z,7.80
2019-04-11T17:46:07.910Z,5.73
2019-04-11T17:48:37.579Z,8.27
2019-04-11T17:51:09.504Z,7.33
2019-04-11T17:53:38.686Z,8.37
2019-04-11T17:56:08.398Z,7.07
2019-04-11T17:58:38.143Z,8.57
2019-04-11T18:01:08.246Z,6.03
2019-04-11T18:03:41.848Z,7.03
2019-04-11T18:06:09.305Z,7.67
2019-04-11T18:08:38.931Z,6.33
2019-04-11T18:11:08.550Z,7.50
2019-04-11T18:13:38.240Z,8.13
2019-04-11T18:16:07.916Z,8.70
2019-04-11T18:18:37.636Z,6.60
2019-04-11T18:21:08.026Z,8.27
2019-04-11T18:23:37.878Z,7.23
2019-04-11T18:26:07.675Z,7.07
2019-04-11T18:28:37.276Z,8.47
2019-04-11T18:31:07.922Z,8.10
2019-04-11T18:33:37.557Z,7.03
2019-04-11T18:36:07.353Z,7.03
2019-04-11T18:38:37.324Z,8.10
2019-04-11T18:41:06.982Z,7.47
2019-04-11T18:43:37.685Z,7.90
2019-04-11T18:46:09.453Z,7.23
2019-04-11T18:48:39.093Z,7.30
2019-04-11T18:51:08.727Z,6.40
2019-04-11T18:53:38.353Z,6.17
2019-04-11T18:56:07.966Z,6.87
2019-04-11T18:58:37.610Z,7.60
2019-04-11T19:01:09.074Z,7.13
2019-04-11T19:03:41.107Z,7.03
2019-04-11T19:06:12.890Z,6.43
2019-04-11T19:08:43.450Z,7.37
2019-04-11T19:11:15.431Z,6.83
2019-04-11T19:13:46.835Z,7.07
2019-04-11T19:16:16.696Z,8.43
2019-04-11T19:18:47.723Z,7.37
2019-04-11T19:21:20.445Z,6.90
2019-04-11T19:23:49.237Z,6.87
2019-04-11T19:26:18.864Z,8.40
2019-04-11T19:28:49.340Z,6.57
2019-04-11T19:31:19.118Z,8.53
2019-04-11T19:33:48.811Z,8.07
2019-04-11T19:36:18.490Z,9.53
2019-04-11T19:38:48.107Z,8.57
2019-04-11T19:41:18.317Z,8.60
2019-04-11T19:43:49.312Z,8.27
2019-04-11T19:46:20.380Z,9.03
2019-04-11T19:48:50.658Z,7.20
2019-04-11T19:51:20.266Z,7.40
2019-04-11T19:53:49.925Z,8.47
2019-04-11T19:56:29.749Z,8.80
2019-04-11T19:58:59.687Z,7.37
2019-04-11T20:01:29.357Z,7.03
2019-04-11T20:03:59.044Z,8.67
2019-04-11T20:06:28.660Z,10.27
2019-04-11T20:08:58.290Z,8.90
2019-04-11T20:11:29.438Z,6.93
2019-04-11T20:14:00.094Z,8.90
2019-04-11T20:16:41.104Z,9.60
2019-04-11T20:19:02.298Z,5.80
2019-04-11T20:21:31.912Z,7.87
2019-04-11T20:24:01.532Z,6.73
2019-04-11T20:26:31.138Z,9.07
2019-04-11T20:29:00.789Z,7.80
2019-04-11T20:31:30.522Z,7.40
2019-04-11T20:34:01.528Z,7.90
2019-04-11T20:36:33.661Z,7.80
2019-04-11T20:39:02.991Z,7.57
2019-04-11T20:41:32.937Z,8.73
2019-04-11T20:44:02.598Z,7.80
2019-04-11T20:46:32.198Z,8.30
2019-04-11T20:49:01.807Z,7.57
2019-04-11T20:51:31.467Z,8.13
2019-04-11T20:54:01.123Z,7.47
2019-04-11T20:56:30.718Z,6.07
2019-04-11T20:59:12.802Z,7.20
2019-04-11T21:01:42.510Z,6.60
2019-04-11T21:04:31.905Z,8.03
2019-04-11T21:07:02.535Z,7.87
2019-04-11T21:09:33.217Z,7.83
2019-04-11T21:12:04.907Z,6.60
2019-04-11T21:14:35.326Z,7.73
2019-04-11T21:17:04.967Z,8.57
2019-04-11T21:19:34.591Z,7.93
2019-04-11T21:22:04.193Z,7.53
2019-04-11T21:24:33.794Z,8.60
2019-04-11T21:27:04.086Z,7.77
2019-04-11T21:29:33.701Z,7.73
2019-04-11T21:32:03.334Z,7.50
2019-04-11T21:34:32.975Z,7.20
2019-04-11T21:37:02.825Z,7.57
2019-04-11T21:39:32.521Z,7.67
2019-04-11T21:42:05.933Z,8.77
2019-04-11T21:44:35.946Z,7.43
2019-04-11T21:47:07.389Z,8.57
2019-04-11T21:49:37.040Z,8.30
2019-04-11T21:52:12.083Z,7.80
2019-04-11T21:54:39.774Z,7.83
2019-04-11T21:57:09.575Z,8.33
2019-04-11T21:59:39.228Z,8.40
2019-04-11T22:02:10.473Z,8.47
2019-04-11T22:04:40.094Z,7.60
2019-04-11T22:07:10.953Z,7.23
2019-04-11T22:09:40.625Z,5.93
2019-04-11T22:12:10.245Z,7.50
2019-04-11T22:14:42.039Z,7.10
2019-04-11T22:17:15.086Z,7.53
2019-04-11T22:19:45.144Z,7.30
2019-04-11T22:22:13.930Z,7.90
2019-04-11T22:24:43.790Z,8.10
2019-04-11T22:27:13.435Z,7.10
2019-04-11T22:29:48.648Z,6.87
2019-04-11T22:32:18.301Z,7.63
2019-04-11T22:34:47.910Z,6.67
2019-04-11T22:37:17.513Z,6.90
2019-04-11T22:39:47.130Z,7.87
2019-04-11T22:42:16.777Z,6.50
2019-04-11T22:44:46.398Z,7.60
2019-04-11T22:47:16.079Z,6.43
2019-04-11T22:49:45.673Z,7.13
2019-04-11T22:52:15.358Z,7.33
2019-04-11T22:54:44.986Z,6.80
2019-04-11T22:57:14.586Z,7.03
2019-04-11T22:59:45.408Z,7.27
2019-04-11T23:02:31.239Z,7.60
2019-04-11T23:05:00.906Z,7.17
2019-04-11T23:07:30.526Z,6.67
2019-04-11T23:10:00.132Z,7.60
2019-04-11T23:12:29.730Z,7.03
2019-04-11T23:14:59.329Z,8.03
2019-04-11T23:17:29.162Z,6.50
2019-04-11T23:19:58.757Z,8.00
2019-04-11T23:22:28.349Z,7.33
2019-04-11T23:24:57.966Z,8.53
2019-04-11T23:27:27.561Z,7.77
2019-04-11T23:29:57.213Z,6.57
2019-04-11T23:32:26.819Z,9.30
2019-04-11T23:34:56.403Z,6.77
2019-04-11T23:37:26.070Z,7.00
2019-04-11T23:39:56.625Z,7.03
2019-04-11T23:42:26.237Z,8.13
2019-04-11T23:44:55.838Z,8.37
2019-04-11T23:47:25.449Z,8.87
2019-04-11T23:49:56.052Z,8.33
2019-04-11T23:52:26.705Z,7.03
2019-04-11T23:54:58.218Z,7.50
2019-04-11T23:57:28.913Z,7.53
